createdAt,value
2022-08-04T00:02:08.145Z,30.14
2022-08-04T00:04:38.237Z,30.14
2022-08-04T00:07:17.779Z,30.03
2022-08-04T00:09:47.995Z,27.03
2022-08-04T00:12:18.217Z,30.10
2022-08-04T00:14:59.959Z,29.69
2022-08-04T00:17:32.696Z,30.06
2022-08-04T00:20:06.641Z,29.41
2022-08-04T00:22:35.381Z,29.91
2022-08-04T00:25:04.862Z,30.04
2022-08-04T00:27:33.188Z,29.89
2022-08-04T00:30:04.954Z,30.08
2022-08-04T00:32:34.555Z,30.10
2022-08-04T00:35:02.301Z,29.98
2022-08-04T00:37:29.286Z,29.83
2022-08-04T00:39:57.637Z,29.62
2022-08-04T00:42:30.443Z,29.48
2022-08-04T00:45:20.483Z,29.78
2022-08-04T00:47:59.769Z,29.89
2022-08-04T00:50:44.455Z,27.95
2022-08-04T00:53:32.341Z,29.79
2022-08-04T00:56:21.010Z,28.90
2022-08-04T00:58:54.065Z,29.48
2022-08-04T01:01:52.004Z,27.41
2022-08-04T01:04:30.539Z,28.87
2022-08-04T01:07:06.934Z,27.08
2022-08-04T01:09:45.683Z,28.50
2022-08-04T01:12:44.363Z,28.67
2022-08-04T01:15:30.707Z,28.73
2022-08-04T01:18:08.881Z,28.48
2022-08-04T01:20:51.724Z,28.77
2022-08-04T01:23:56.250Z,28.69
2022-08-04T01:26:42.776Z,28.77
2022-08-04T01:29:34.382Z,28.60
2022-08-04T01:32:46.920Z,28.46
2022-08-04T01:35:53.479Z,28.78
2022-08-04T01:38:28.866Z,28.85
2022-08-04T01:41:01.319Z,28.81
2022-08-04T01:43:32.884Z,28.73
2022-08-04T01:46:04.924Z,28.80
2022-08-04T01:48:32.280Z,26.84
2022-08-04T01:51:04.817Z,28.28
2022-08-04T01:53:37.789Z,25.37
2022-08-04T01:56:06.924Z,28.00
2022-08-04T01:59:09.174Z,27.98
2022-08-04T02:01:39.435Z,28.10
2022-08-04T02:04:21.079Z,26.52
2022-08-04T02:06:58.518Z,28.20
2022-08-04T02:09:54.230Z,28.28
2022-08-04T02:12:39.714Z,28.01
2022-08-04T02:15:39.467Z,26.60
2022-08-04T02:18:38.592Z,27.93
2022-08-04T02:21:05.523Z,27.93
2022-08-04T02:23:38.714Z,27.91
2022-08-04T02:26:28.981Z,28.05
2022-08-04T02:29:30.389Z,27.83
2022-08-04T02:32:05.680Z,27.82
2022-08-04T02:34:42.748Z,27.73
2022-08-04T02:37:11.912Z,27.47
2022-08-04T02:39:48.533Z,27.17
2022-08-04T02:42:17.925Z,27.34
2022-08-04T02:44:50.389Z,26.75
2022-08-04T02:47:22.057Z,27.51
2022-08-04T02:50:10.443Z,27.31
2022-08-04T02:52:39.276Z,26.56
2022-08-04T02:55:11.626Z,27.39
2022-08-04T02:57:40.208Z,27.07
2022-08-04T03:00:11.839Z,27.49
2022-08-04T03:03:13.182Z,27.07
2022-08-04T03:06:01.461Z,27.16
2022-08-04T03:08:45.466Z,27.09
2022-08-04T03:11:50.175Z,27.35
2022-08-04T03:14:42.100Z,27.20
2022-08-04T03:17:52.700Z,27.25
2022-08-04T03:20:59.449Z,27.12
2022-08-04T03:24:00.898Z,25.69
2022-08-04T03:26:51.767Z,27.26
2022-08-04T03:29:36.773Z,26.32
2022-08-04T03:32:35.150Z,27.22
2022-08-04T03:35:51.799Z,27.12
2022-08-04T03:39:09.334Z,25.84
2022-08-04T03:41:55.103Z,26.81
2022-08-04T03:44:50.231Z,26.71
2022-08-04T03:47:23.248Z,25.12
2022-08-04T03:50:14.439Z,26.70
2022-08-04T03:53:10.573Z,26.91
2022-08-04T03:56:07.310Z,26.18
2022-08-04T03:59:13.666Z,26.96
2022-08-04T04:02:29.520Z,26.30
2022-08-04T04:05:14.992Z,24.67
2022-08-04T04:08:18.732Z,26.37
2022-08-04T04:10:46.189Z,26.27
2022-08-04T04:13:30.553Z,26.26
2022-08-04T04:16:01.323Z,24.40
2022-08-04T04:19:14.917Z,26.08
2022-08-04T04:22:06.491Z,24.51
2022-08-04T04:24:34.085Z,26.21
2022-08-04T04:27:34.969Z,26.31
2022-08-04T04:30:33.696Z,26.62
2022-08-04T04:33:25.903Z,26.60
2022-08-04T04:36:02.079Z,26.49
2022-08-04T04:38:38.286Z,26.58
2022-08-04T04:41:55.026Z,26.74
2022-08-04T04:44:59.302Z,26.42
2022-08-04T04:48:10.874Z,27.01
2022-08-04T04:50:59.899Z,27.17
2022-08-04T04:53:52.085Z,27.38
2022-08-04T04:56:43.104Z,27.19
2022-08-04T04:59:13.733Z,27.55
2022-08-04T05:01:58.106Z,27.10
2022-08-04T05:04:57.289Z,27.85
2022-08-04T05:08:43.079Z,28.16
2022-08-04T05:11:39.252Z,28.18
2022-08-04T05:14:35.207Z,28.33
2022-08-04T05:17:33.912Z,26.90
2022-08-04T05:20:15.201Z,28.08
2022-08-04T05:22:51.509Z,27.14
2022-08-04T05:26:06.640Z,28.22
2022-08-04T05:28:53.927Z,28.99
2022-08-04T05:31:54.164Z,29.28
2022-08-04T05:34:29.311Z,29.45
2022-08-04T05:37:08.644Z,28.85
2022-08-04T05:40:12.220Z,29.75
2022-08-04T05:42:41.857Z,29.85
2022-08-04T05:45:12.019Z,30.05
2022-08-04T05:47:39.446Z,30.29
2022-08-04T05:50:09.894Z,29.09
2022-08-04T05:52:40.952Z,30.65
2022-08-04T05:55:09.730Z,30.09
2022-08-04T05:57:40.815Z,30.77
2022-08-04T06:00:38.963Z,31.00
2022-08-04T06:03:01.398Z,30.96
2022-08-04T06:05:29.245Z,31.24
2022-08-04T06:08:04.541Z,31.52
2022-08-04T06:10:45.226Z,31.50
2022-08-04T06:13:47.602Z,31.84
2022-08-04T06:16:03.093Z,32.13
2022-08-04T06:19:57.027Z,32.27
2022-08-04T06:21:25.087Z,32.40
2022-08-04T06:23:59.612Z,32.71
2022-08-04T06:26:40.337Z,31.00
2022-08-04T06:29:27.113Z,33.03
2022-08-04T06:32:28.588Z,32.95
2022-08-04T06:34:47.781Z,32.87
2022-08-04T06:37:41.102Z,32.68
2022-08-04T06:40:29.395Z,33.33
2022-08-04T06:42:57.085Z,33.81
2022-08-04T06:45:26.038Z,33.78
2022-08-04T06:47:58.044Z,33.67
2022-08-04T06:51:27.333Z,34.47
2022-08-04T06:53:14.351Z,34.70
2022-08-04T06:55:52.342Z,35.12
2022-08-04T06:58:26.687Z,34.93
2022-08-04T07:01:02.878Z,32.54
2022-08-04T07:03:35.576Z,34.36
2022-08-04T07:06:05.694Z,35.60
2022-08-04T07:08:36.631Z,35.53
2022-08-04T07:11:06.353Z,34.93
2022-08-04T07:13:46.797Z,34.69
2022-08-04T07:16:33.607Z,36.11
2022-08-04T07:19:10.597Z,36.17
2022-08-04T07:22:15.942Z,36.36
2022-08-04T07:24:31.957Z,35.39
2022-08-04T07:27:00.690Z,35.39
2022-08-04T07:29:31.231Z,36.65
2022-08-04T07:32:05.840Z,36.67
2022-08-04T07:34:34.744Z,36.84
2022-08-04T07:37:04.143Z,36.24
2022-08-04T07:39:33.151Z,36.36
2022-08-04T07:42:19.175Z,36.53
2022-08-04T07:44:47.129Z,36.96
2022-08-04T07:47:15.635Z,35.05
2022-08-04T07:49:56.429Z,37.18
2022-08-04T07:52:27.260Z,37.10
2022-08-04T07:54:54.341Z,37.66
2022-08-04T07:57:41.197Z,38.40
2022-08-04T08:00:11.707Z,37.53
2022-08-04T08:02:40.041Z,37.63
2022-08-04T08:05:21.039Z,38.22
2022-08-04T08:07:54.403Z,37.56
2022-08-04T08:10:26.710Z,38.84
2022-08-04T08:12:56.164Z,39.14
2022-08-04T08:15:33.209Z,38.99
2022-08-04T08:18:06.101Z,39.21
2022-08-04T08:20:33.484Z,39.32
2022-08-04T08:23:03.858Z,39.60
2022-08-04T08:25:34.286Z,38.89
2022-08-04T08:28:07.835Z,38.41
2022-08-04T08:30:37.076Z,39.00
2022-08-04T08:33:14.073Z,39.67
2022-08-04T08:36:05.925Z,40.10
2022-08-04T08:39:12.230Z,40.22
2022-08-04T08:42:28.075Z,40.47
2022-08-04T08:45:30.297Z,40.47
2022-08-04T08:48:19.537Z,40.55
2022-08-04T08:51:08.421Z,40.36
2022-08-04T08:53:52.044Z,40.79
2022-08-04T08:56:41.580Z,39.29
2022-08-04T08:59:33.320Z,40.77
2022-08-04T09:02:25.777Z,40.40
2022-08-04T09:05:09.402Z,40.11
2022-08-04T09:08:19.618Z,40.38
2022-08-04T09:10:54.369Z,40.43
2022-08-04T09:13:33.318Z,40.89
2022-08-04T09:16:28.143Z,40.32
2022-08-04T09:19:05.779Z,40.61
2022-08-04T09:21:40.086Z,40.91
2022-08-04T09:24:35.304Z,41.54
2022-08-04T09:27:10.176Z,42.06
2022-08-04T09:29:56.917Z,42.45
2022-08-04T09:32:34.053Z,42.97
2022-08-04T09:35:24.373Z,41.29
2022-08-04T09:38:33.482Z,41.13
2022-08-04T09:41:49.391Z,41.96
2022-08-04T09:44:50.181Z,41.42
2022-08-04T09:47:25.977Z,41.88
2022-08-04T09:50:38.660Z,43.04
2022-08-04T09:53:28.803Z,43.08
2022-08-04T09:56:25.939Z,42.66
2022-08-04T09:59:14.834Z,42.52
2022-08-04T10:01:44.206Z,42.39
2022-08-04T10:04:31.784Z,41.97
2022-08-04T10:07:38.262Z,42.05
2022-08-04T10:10:45.641Z,42.24
2022-08-04T10:13:38.744Z,42.73
2022-08-04T10:16:48.285Z,42.94
2022-08-04T10:19:37.036Z,42.93
2022-08-04T10:22:27.266Z,41.95
2022-08-04T10:26:06.936Z,42.98
2022-08-04T10:29:17.869Z,43.49
2022-08-04T10:32:10.549Z,40.88
2022-08-04T10:35:04.438Z,43.08
2022-08-04T10:40:51.518Z,42.37
2022-08-04T10:43:52.635Z,42.59
2022-08-04T10:46:32.876Z,41.89
2022-08-04T10:49:46.330Z,41.53
2022-08-04T10:52:54.313Z,42.42
2022-08-04T10:56:06.786Z,41.94
2022-08-04T10:58:47.663Z,42.37
2022-08-04T11:01:59.634Z,40.96
2022-08-04T11:04:58.768Z,41.08
2022-08-04T11:07:35.975Z,40.30
2022-08-04T11:10:05.130Z,40.55
2022-08-04T11:12:48.037Z,40.89
2022-08-04T11:15:23.885Z,41.08
2022-08-04T11:18:16.338Z,42.35
2022-08-04T11:21:05.724Z,42.21
2022-08-04T11:23:38.674Z,42.24
2022-08-04T11:26:46.688Z,42.33
2022-08-04T11:30:04.458Z,43.14
2022-08-04T11:32:46.440Z,43.12
2022-08-04T11:35:54.851Z,41.75
2022-08-04T11:38:32.969Z,42.63
2022-08-04T11:41:13.511Z,43.03
2022-08-04T11:44:03.973Z,43.02
2022-08-04T11:46:57.063Z,40.64
2022-08-04T11:49:57.294Z,42.16
2022-08-04T11:52:28.464Z,43.86
2022-08-04T11:55:08.534Z,43.68
2022-08-04T11:57:39.479Z,44.73
2022-08-04T12:00:13.102Z,42.47
2022-08-04T12:03:18.943Z,44.29
2022-08-04T12:05:58.982Z,41.36
2022-08-04T12:08:58.436Z,44.13
2022-08-04T12:11:59.350Z,43.90
2022-08-04T12:14:52.133Z,43.99
2022-08-04T12:17:53.109Z,44.13
2022-08-04T12:20:40.329Z,44.25
2022-08-04T12:23:16.146Z,43.84
2022-08-04T12:25:50.637Z,43.13
2022-08-04T12:28:52.500Z,42.28
2022-08-04T12:31:28.254Z,43.01
2022-08-04T12:34:12.157Z,43.10
2022-08-04T12:37:27.527Z,41.05
2022-08-04T12:40:27.940Z,41.87
2022-08-04T12:43:04.272Z,42.10
2022-08-04T12:45:35.167Z,42.53
2022-08-04T12:48:05.925Z,42.61
2022-08-04T12:50:33.992Z,43.73
2022-08-04T12:53:02.532Z,43.45
2022-08-04T12:55:33.783Z,43.86
2022-08-04T12:58:13.276Z,44.10
2022-08-04T13:00:48.270Z,43.96
2022-08-04T13:03:19.785Z,43.37
2022-08-04T13:05:51.227Z,43.75
2022-08-04T13:08:24.818Z,41.26
2022-08-04T13:10:57.944Z,43.31
2022-08-04T13:13:27.274Z,42.72
2022-08-04T13:16:04.395Z,42.35
2022-08-04T13:18:53.290Z,42.84
2022-08-04T13:21:50.362Z,43.89
2022-08-04T13:24:31.018Z,43.43
2022-08-04T13:27:16.451Z,42.96
2022-08-04T13:29:58.719Z,41.06
2022-08-04T13:33:09.445Z,42.85
2022-08-04T13:35:54.545Z,43.20
2022-08-04T13:38:28.168Z,43.97
2022-08-04T13:41:03.256Z,44.05
2022-08-04T13:44:16.761Z,43.72
2022-08-04T13:46:28.167Z,43.25
2022-08-04T13:52:17.738Z,44.21
2022-08-04T13:54:47.664Z,41.91
2022-08-04T13:57:43.325Z,43.56
2022-08-04T14:00:11.780Z,43.11
2022-08-04T14:03:21.041Z,42.77
2022-08-04T14:06:20.344Z,42.27
2022-08-04T14:09:15.056Z,42.16
2022-08-04T14:12:14.640Z,42.63
2022-08-04T14:14:53.780Z,43.03
2022-08-04T14:17:39.208Z,41.65
2022-08-04T14:20:09.325Z,41.99
2022-08-04T14:22:37.480Z,42.57
2022-08-04T14:25:16.271Z,42.85
2022-08-04T14:28:06.429Z,42.34
2022-08-04T14:30:37.806Z,42.36
2022-08-04T14:34:02.537Z,42.23
2022-08-04T14:36:39.360Z,42.51
2022-08-04T14:40:17.952Z,42.03
2022-08-04T14:42:42.935Z,42.43
2022-08-04T14:45:10.199Z,42.46
2022-08-04T14:47:52.566Z,42.45
2022-08-04T14:50:20.444Z,43.12
2022-08-04T14:52:47.405Z,43.04
2022-08-04T14:55:25.167Z,42.67
2022-08-04T14:58:34.630Z,42.85
2022-08-04T15:00:50.364Z,42.61
2022-08-04T15:03:23.458Z,41.11
2022-08-04T15:06:02.298Z,40.07
2022-08-04T15:08:44.383Z,41.13
2022-08-04T15:11:23.470Z,40.63
2022-08-04T15:13:54.266Z,39.28
2022-08-04T15:16:26.077Z,38.27
2022-08-04T15:18:56.927Z,39.23
2022-08-04T15:21:29.321Z,39.26
2022-08-04T15:23:58.136Z,39.42
2022-08-04T15:26:51.958Z,39.08
2022-08-04T15:29:59.173Z,38.80
2022-08-04T15:32:28.698Z,38.46
2022-08-04T15:35:15.678Z,38.14
2022-08-04T15:38:09.633Z,38.62
2022-08-04T15:41:05.288Z,38.45
2022-08-04T15:44:18.693Z,37.58
2022-08-04T15:46:52.575Z,34.07
2022-08-04T15:52:12.429Z,36.55
2022-08-04T15:54:52.060Z,36.63
2022-08-04T15:58:03.116Z,35.92
2022-08-04T16:00:56.707Z,35.36
2022-08-04T16:03:58.583Z,36.00
2022-08-04T16:06:38.581Z,35.17
2022-08-04T16:09:06.101Z,34.87
2022-08-04T16:11:41.872Z,34.55
2022-08-04T16:14:10.022Z,34.79
2022-08-04T16:20:03.770Z,34.07
2022-08-04T16:22:40.912Z,34.16
2022-08-04T16:25:09.461Z,33.94
2022-08-04T16:27:46.464Z,33.78
2022-08-04T16:30:15.921Z,31.02
2022-08-04T16:32:45.630Z,32.71
2022-08-04T16:35:23.012Z,32.85
2022-08-04T16:38:15.703Z,32.92
2022-08-04T16:40:46.693Z,32.50
2022-08-04T16:43:59.223Z,33.22
2022-08-04T16:47:08.921Z,32.83
2022-08-04T16:49:33.577Z,30.16
2022-08-04T16:52:18.077Z,31.68
2022-08-04T16:54:45.942Z,30.92
2022-08-04T16:57:28.338Z,30.65
2022-08-04T16:59:55.488Z,30.48
2022-08-04T17:02:26.708Z,31.42
2022-08-04T17:05:07.559Z,31.45
2022-08-04T17:08:19.570Z,28.92
2022-08-04T17:10:42.862Z,31.46
2022-08-04T17:14:02.203Z,31.32
2022-08-04T17:16:21.098Z,30.31
2022-08-04T17:18:53.583Z,31.08
2022-08-04T17:21:36.525Z,30.97
2022-08-04T17:24:16.114Z,31.25
2022-08-04T17:26:54.008Z,31.16
2022-08-04T17:29:43.854Z,31.05
2022-08-04T17:32:21.450Z,31.36
2022-08-04T17:35:11.287Z,31.00
2022-08-04T17:38:00.793Z,30.73
2022-08-04T17:40:28.128Z,27.57
2022-08-04T17:46:36.273Z,28.09
2022-08-04T17:49:23.989Z,30.38
2022-08-04T17:52:11.398Z,29.84
2022-08-04T17:54:47.224Z,27.97
2022-08-04T17:57:21.674Z,30.30
2022-08-04T18:02:56.189Z,31.69
2022-08-04T18:06:01.881Z,31.61
2022-08-04T18:08:40.153Z,31.73
2022-08-04T18:11:19.130Z,31.87
2022-08-04T18:13:56.962Z,31.17
2022-08-04T18:16:24.992Z,31.74
2022-08-04T18:19:10.337Z,31.79
2022-08-04T18:21:46.478Z,31.91
2022-08-04T18:27:08.756Z,31.81
2022-08-04T18:29:39.272Z,29.70
2022-08-04T18:32:08.929Z,31.77
2022-08-04T18:34:40.980Z,31.43
2022-08-04T18:38:06.647Z,31.33
2022-08-04T18:40:27.350Z,31.79
2022-08-04T18:43:00.134Z,31.58
2022-08-04T18:45:34.148Z,31.53
2022-08-04T18:48:03.987Z,31.15
2022-08-04T18:51:10.988Z,31.37
2022-08-04T18:53:20.315Z,31.44
2022-08-04T18:55:56.631Z,31.41
2022-08-04T18:58:29.151Z,30.95
2022-08-04T19:01:00.297Z,30.50
2022-08-04T19:03:32.952Z,31.30
2022-08-04T19:06:04.247Z,31.33
2022-08-04T19:08:46.956Z,31.24
2022-08-04T19:11:54.442Z,29.97
2022-08-04T19:14:15.592Z,31.09
2022-08-04T19:16:58.674Z,31.13
2022-08-04T19:19:47.935Z,29.74
2022-08-04T19:22:35.629Z,31.33
2022-08-04T19:25:09.050Z,30.89
2022-08-04T19:27:40.030Z,29.46
2022-08-04T19:30:25.113Z,29.32
2022-08-04T19:32:58.573Z,30.81
2022-08-04T19:35:28.822Z,29.22
2022-08-04T19:38:03.635Z,29.48
2022-08-04T19:40:35.075Z,30.60
2022-08-04T19:43:15.461Z,30.53
2022-08-04T19:45:44.626Z,30.45
2022-08-04T19:52:00.858Z,30.38
2022-08-04T19:54:29.808Z,30.32
2022-08-04T19:57:19.350Z,30.31
2022-08-04T20:00:08.616Z,28.97
2022-08-04T20:02:42.916Z,30.37
2022-08-04T20:05:13.028Z,30.32
2022-08-04T20:07:42.891Z,30.27
2022-08-04T20:10:13.078Z,29.80
2022-08-04T20:12:42.123Z,29.14
2022-08-04T20:15:12.492Z,30.35
2022-08-04T20:18:08.295Z,30.34
2022-08-04T20:20:31.827Z,29.74
2022-08-04T20:23:06.753Z,30.20
2022-08-04T20:25:39.537Z,30.37
2022-08-04T20:28:25.625Z,29.76
2022-08-04T20:31:03.561Z,29.93
2022-08-04T20:33:31.524Z,30.18
2022-08-04T20:36:06.639Z,30.11
2022-08-04T20:38:36.368Z,30.15
2022-08-04T20:41:14.844Z,30.16
2022-08-04T20:43:49.763Z,30.06
2022-08-04T20:46:25.626Z,29.99
2022-08-04T20:48:57.940Z,29.90
2022-08-04T20:51:33.133Z,30.05
2022-08-04T20:54:16.651Z,29.09
2022-08-04T20:56:51.158Z,29.74
2022-08-04T20:59:19.948Z,29.05
2022-08-04T21:01:49.455Z,30.08
2022-08-04T21:04:48.590Z,29.97
2022-08-04T21:07:17.125Z,28.80
2022-08-04T21:09:50.090Z,29.76
2022-08-04T21:12:28.613Z,29.69
2022-08-04T21:15:00.867Z,29.60
2022-08-04T21:20:27.763Z,29.65
2022-08-04T21:23:07.273Z,29.57
2022-08-04T21:25:43.696Z,29.34
2022-08-04T21:28:20.037Z,29.47
2022-08-04T21:30:52.759Z,29.41
2022-08-04T21:36:14.223Z,28.42
2022-08-04T21:38:51.347Z,29.11
2022-08-04T21:44:10.201Z,29.17
2022-08-04T21:46:44.233Z,28.92
2022-08-04T21:49:12.662Z,28.86
2022-08-04T21:51:58.510Z,28.20
2022-08-04T21:54:27.685Z,28.90
2022-08-04T21:56:54.596Z,28.43
2022-08-04T21:59:30.444Z,27.83
2022-08-04T22:02:01.424Z,28.20
2022-08-04T22:04:56.586Z,28.13
2022-08-04T22:07:25.150Z,28.21
2022-08-04T22:10:11.559Z,28.05
2022-08-04T22:12:39.680Z,28.13
2022-08-04T22:15:22.841Z,27.31
2022-08-04T22:18:04.369Z,28.31
2022-08-04T22:20:31.583Z,28.22
2022-08-04T22:23:16.805Z,27.69
2022-08-04T22:25:55.728Z,27.76
2022-08-04T22:28:32.798Z,27.37
2022-08-04T22:30:59.591Z,27.28
2022-08-04T22:33:55.980Z,27.53
2022-08-04T22:36:24.681Z,27.38
2022-08-04T22:39:07.147Z,27.16
2022-08-04T22:41:48.908Z,27.27
2022-08-04T22:44:24.751Z,27.16
2022-08-04T22:47:02.341Z,27.06
2022-08-04T22:49:52.388Z,27.41
2022-08-04T22:52:31.951Z,27.53
2022-08-04T22:55:20.063Z,27.60
2022-08-04T22:58:04.885Z,27.12
2022-08-04T23:00:34.154Z,27.49
2022-08-04T23:03:00.878Z,26.32
2022-08-04T23:05:36.131Z,26.93
2022-08-04T23:08:04.199Z,27.08
2022-08-04T23:10:32.011Z,25.72
2022-08-04T23:13:01.018Z,27.16
2022-08-04T23:15:33.726Z,27.15
2022-08-04T23:18:02.022Z,27.10
2022-08-04T23:20:33.019Z,27.18
2022-08-04T23:23:14.816Z,26.63
2022-08-04T23:26:08.420Z,27.12
2022-08-04T23:28:31.643Z,27.05
2022-08-04T23:30:59.181Z,27.25
2022-08-04T23:33:49.264Z,26.70
2022-08-04T23:36:12.498Z,26.80
2022-08-04T23:38:42.249Z,27.05
2022-08-04T23:41:53.952Z,26.75
2022-08-04T23:44:17.459Z,26.80
2022-08-04T23:46:51.329Z,26.71
2022-08-04T23:49:20.119Z,26.75
2022-08-04T23:51:49.759Z,26.52
2022-08-04T23:54:25.974Z,26.65
2022-08-04T23:56:53.132Z,25.65
2022-08-04T23:59:49.143Z,26.64
